sensor_id;sensor_type;location;lat;lon;timestamp;pressure;altitude;pressure_sealevel;temperature;humidity
27144;BME280;14672;50.250;8.312;2022-09-09T00:04:39;98288.16;;;20.82;62.36
27144;BME280;14672;50.250;8.312;2022-09-09T00:07:24;98285.22;;;20.63;62.71
27144;BME280;14672;50.250;8.312;2022-09-09T00:10:23;98276.03;;;20.65;62.82
27144;BME280;14672;50.250;8.312;2022-09-09T00:21:24;98264.66;;;20.73;62.20
27144;BME280;14672;50.250;8.312;2022-09-09T00:23:54;98262.16;;;20.63;62.09
27144;BME280;14672;50.250;8.312;2022-09-09T00:26:45;98271.59;;;20.64;62.41
27144;BME280;14672;50.250;8.312;2022-09-09T00:29:41;98271.38;;;20.62;62.34
27144;BME280;14672;50.250;8.312;2022-09-09T00:32:18;98270.94;;;20.52;63.14
27144;BME280;14672;50.250;8.312;2022-09-09T00:35:13;98269.50;;;20.65;62.56
27144;BME280;14672;50.250;8.312;2022-09-09T00:37:42;98271.28;;;20.68;61.87
27144;BME280;14672;50.250;8.312;2022-09-09T00:43:31;98265.50;;;20.68;62.05
27144;BME280;14672;50.250;8.312;2022-09-09T00:57:41;98265.22;;;20.47;62.42
27144;BME280;14672;50.250;8.312;2022-09-09T01:06:30;98264.63;;;20.54;62.21
27144;BME280;14672;50.250;8.312;2022-09-09T01:09:24;98261.31;;;20.44;62.02
27144;BME280;14672;50.250;8.312;2022-09-09T01:17:35;98255.97;;;20.30;62.63
27144;BME280;14672;50.250;8.312;2022-09-09T01:20:28;98257.78;;;20.27;62.81
27144;BME280;14672;50.250;8.312;2022-09-09T01:29:10;98272.09;;;19.84;63.74
27144;BME280;14672;50.250;8.312;2022-09-09T01:31:41;98272.06;;;19.90;63.59
27144;BME280;14672;50.250;8.312;2022-09-09T01:34:15;98277.94;;;20.03;63.28
27144;BME280;14672;50.250;8.312;2022-09-09T01:39:26;98273.69;;;19.80;64.04
27144;BME280;14672;50.250;8.312;2022-09-09T01:41:53;98261.00;;;19.64;64.78
27144;BME280;14672;50.250;8.312;2022-09-09T01:44:21;98275.91;;;19.68;64.59
27144;BME280;14672;50.250;8.312;2022-09-09T01:46:48;98265.47;;;19.59;64.62
27144;BME280;14672;50.250;8.312;2022-09-09T01:49:14;98269.53;;;19.75;64.06
27144;BME280;14672;50.250;8.312;2022-09-09T01:51:41;98264.38;;;19.68;64.41
27144;BME280;14672;50.250;8.312;2022-09-09T01:54:07;98254.44;;;19.63;64.31
27144;BME280;14672;50.250;8.312;2022-09-09T01:57:06;98257.97;;;19.81;63.82
27144;BME280;14672;50.250;8.312;2022-09-09T01:59:45;98258.59;;;19.68;64.25
27144;BME280;14672;50.250;8.312;2022-09-09T02:02:19;98255.78;;;19.62;64.29
27144;BME280;14672;50.250;8.312;2022-09-09T02:04:56;98267.38;;;19.51;65.00
27144;BME280;14672;50.250;8.312;2022-09-09T02:07:40;98266.91;;;19.36;65.39
27144;BME280;14672;50.250;8.312;2022-09-09T02:13:09;98267.47;;;19.35;65.43
27144;BME280;14672;50.250;8.312;2022-09-09T02:21:17;98274.19;;;19.48;64.86
27144;BME280;14672;50.250;8.312;2022-09-09T02:23:47;98280.47;;;19.52;65.20
27144;BME280;14672;50.250;8.312;2022-09-09T02:26:19;98288.09;;;19.50;65.13
27144;BME280;14672;50.250;8.312;2022-09-09T02:28:51;98286.13;;;19.63;64.57
27144;BME280;14672;50.250;8.312;2022-09-09T02:31:22;98291.66;;;19.61;64.71
27144;BME280;14672;50.250;8.312;2022-09-09T02:33:58;98285.94;;;19.56;65.11
27144;BME280;14672;50.250;8.312;2022-09-09T02:36:28;98286.44;;;19.60;64.69
27144;BME280;14672;50.250;8.312;2022-09-09T02:38:55;98289.78;;;19.69;64.62
27144;BME280;14672;50.250;8.312;2022-09-09T02:41:31;98276.69;;;19.68;64.72
27144;BME280;14672;50.250;8.312;2022-09-09T02:43:58;98275.09;;;19.67;64.63
27144;BME280;14672;50.250;8.312;2022-09-09T02:47:07;98281.38;;;19.72;64.76
27144;BME280;14672;50.250;8.312;2022-09-09T02:52:30;98273.56;;;19.66;65.04
27144;BME280;14672;50.250;8.312;2022-09-09T02:55:10;98254.72;;;19.60;65.06
27144;BME280;14672;50.250;8.312;2022-09-09T02:57:38;98252.53;;;19.72;64.83
27144;BME280;14672;50.250;8.312;2022-09-09T03:00:06;98255.69;;;19.74;64.67
27144;BME280;14672;50.250;8.312;2022-09-09T03:02:32;98258.50;;;19.79;64.18
27144;BME280;14672;50.250;8.312;2022-09-09T03:04:58;98257.22;;;19.75;64.47
27144;BME280;14672;50.250;8.312;2022-09-09T03:07:24;98257.22;;;19.75;64.58
27144;BME280;14672;50.250;8.312;2022-09-09T03:09:50;98261.78;;;19.64;64.91
27144;BME280;14672;50.250;8.312;2022-09-09T03:12:16;98264.84;;;19.72;64.68
27144;BME280;14672;50.250;8.312;2022-09-09T03:14:42;98266.81;;;19.58;65.21
27144;BME280;14672;50.250;8.312;2022-09-09T03:17:08;98261.31;;;19.55;65.59
27144;BME280;14672;50.250;8.312;2022-09-09T03:19:34;98262.31;;;19.63;65.20
27144;BME280;14672;50.250;8.312;2022-09-09T03:22:01;98257.22;;;19.75;64.72
27144;BME280;14672;50.250;8.312;2022-09-09T03:24:29;98251.00;;;19.71;64.96
27144;BME280;14672;50.250;8.312;2022-09-09T03:26:55;98251.19;;;19.78;64.78
27144;BME280;14672;50.250;8.312;2022-09-09T03:29:21;98258.00;;;19.75;65.00
27144;BME280;14672;50.250;8.312;2022-09-09T03:31:47;98260.66;;;19.73;64.99
27144;BME280;14672;50.250;8.312;2022-09-09T03:34:13;98262.56;;;19.65;65.12
27144;BME280;14672;50.250;8.312;2022-09-09T03:36:41;98268.28;;;19.71;64.92
27144;BME280;14672;50.250;8.312;2022-09-09T03:39:07;98266.72;;;19.69;64.95
27144;BME280;14672;50.250;8.312;2022-09-09T03:41:33;98264.84;;;19.72;64.95
27144;BME280;14672;50.250;8.312;2022-09-09T03:43:59;98268.22;;;19.76;64.72
27144;BME280;14672;50.250;8.312;2022-09-09T03:46:25;98273.66;;;19.85;64.68
27144;BME280;14672;50.250;8.312;2022-09-09T03:48:51;98274.19;;;19.84;64.91
27144;BME280;14672;50.250;8.312;2022-09-09T03:51:19;98268.09;;;19.93;64.60
27144;BME280;14672;50.250;8.312;2022-09-09T03:53:45;98273.09;;;19.87;64.56
27144;BME280;14672;50.250;8.312;2022-09-09T03:56:10;98283.34;;;19.88;64.79
27144;BME280;14672;50.250;8.312;2022-09-09T03:58:37;98277.84;;;19.84;65.11
27144;BME280;14672;50.250;8.312;2022-09-09T04:01:07;98286.03;;;19.75;65.38
27144;BME280;14672;50.250;8.312;2022-09-09T04:03:34;98271.88;;;19.82;65.13
27144;BME280;14672;50.250;8.312;2022-09-09T04:06:05;98267.09;;;19.90;65.15
27144;BME280;14672;50.250;8.312;2022-09-09T04:08:32;98267.91;;;19.85;64.88
27144;BME280;14672;50.250;8.312;2022-09-09T04:10:58;98259.25;;;19.85;65.28
27144;BME280;14672;50.250;8.312;2022-09-09T04:13:27;98257.69;;;19.84;65.46
27144;BME280;14672;50.250;8.312;2022-09-09T04:16:01;98267.09;;;19.90;65.66
27144;BME280;14672;50.250;8.312;2022-09-09T04:18:27;98270.00;;;19.85;65.07
27144;BME280;14672;50.250;8.312;2022-09-09T04:20:56;98255.28;;;19.88;65.15
27144;BME280;14672;50.250;8.312;2022-09-09T04:23:24;98261.50;;;19.98;64.75
27144;BME280;14672;50.250;8.312;2022-09-09T04:25:52;98260.72;;;19.97;64.65
27144;BME280;14672;50.250;8.312;2022-09-09T04:28:22;98262.22;;;20.04;64.58
27144;BME280;14672;50.250;8.312;2022-09-09T04:30:49;98254.41;;;19.99;64.86
27144;BME280;14672;50.250;8.312;2022-09-09T04:33:15;98255.00;;;19.92;65.10
27144;BME280;14672;50.250;8.312;2022-09-09T04:35:48;98238.66;;;20.00;65.04
27144;BME280;14672;50.250;8.312;2022-09-09T04:38:16;98247.00;;;20.03;64.44
27144;BME280;14672;50.250;8.312;2022-09-09T04:40:45;98249.38;;;20.05;64.61
27144;BME280;14672;50.250;8.312;2022-09-09T04:43:12;98258.44;;;20.14;64.15
27144;BME280;14672;50.250;8.312;2022-09-09T04:45:41;98266.13;;;20.06;64.28
27144;BME280;14672;50.250;8.312;2022-09-09T04:48:07;98277.19;;;20.02;64.65
27144;BME280;14672;50.250;8.312;2022-09-09T04:50:33;98281.09;;;20.05;64.54
27144;BME280;14672;50.250;8.312;2022-09-09T04:53:04;98272.19;;;20.03;64.68
27144;BME280;14672;50.250;8.312;2022-09-09T04:55:31;98272.19;;;20.03;64.61
27144;BME280;14672;50.250;8.312;2022-09-09T04:57:57;98258.63;;;19.98;64.92
27144;BME280;14672;50.250;8.312;2022-09-09T05:00:24;98256.78;;;19.95;64.96
27144;BME280;14672;50.250;8.312;2022-09-09T05:02:50;98266.53;;;19.92;65.07
27144;BME280;14672;50.250;8.312;2022-09-09T05:05:16;98261.91;;;20.07;64.32
27144;BME280;14672;50.250;8.312;2022-09-09T05:07:42;98256.00;;;20.24;64.06
27144;BME280;14672;50.250;8.312;2022-09-09T05:10:09;98262.22;;;20.34;63.45
27144;BME280;14672;50.250;8.312;2022-09-09T05:12:36;98256.16;;;20.37;63.35
27144;BME280;14672;50.250;8.312;2022-09-09T05:15:01;98265.91;;;20.34;63.52
27144;BME280;14672;50.250;8.312;2022-09-09T05:17:27;98271.91;;;20.36;63.63
27144;BME280;14672;50.250;8.312;2022-09-09T05:19:54;98281.63;;;20.33;63.77
27144;BME280;14672;50.250;8.312;2022-09-09T05:22:20;98280.84;;;20.33;63.86
27144;BME280;14672;50.250;8.312;2022-09-09T05:24:46;98281.25;;;20.18;64.24
27144;BME280;14672;50.250;8.312;2022-09-09T05:27:12;98285.06;;;20.32;63.86
27144;BME280;14672;50.250;8.312;2022-09-09T05:29:38;98278.44;;;20.37;63.35
27144;BME280;14672;50.250;8.312;2022-09-09T05:32:06;98284.53;;;20.28;63.68
27144;BME280;14672;50.250;8.312;2022-09-09T05:34:32;98291.56;;;20.38;63.53
27144;BME280;14672;50.250;8.312;2022-09-09T05:36:58;98291.13;;;20.23;64.18
27144;BME280;14672;50.250;8.312;2022-09-09T05:39:23;98294.88;;;20.17;64.56
27144;BME280;14672;50.250;8.312;2022-09-09T05:41:49;98298.38;;;20.35;63.69
27144;BME280;14672;50.250;8.312;2022-09-09T05:44:16;98300.22;;;20.38;63.64
27144;BME280;14672;50.250;8.312;2022-09-09T05:46:42;98300.84;;;20.25;64.00
27144;BME280;14672;50.250;8.312;2022-09-09T05:49:08;98293.97;;;20.28;64.05
27144;BME280;14672;50.250;8.312;2022-09-09T05:51:34;98300.75;;;20.36;63.51
27144;BME280;14672;50.250;8.312;2022-09-09T05:54:00;98308.81;;;20.43;63.88
27144;BME280;14672;50.250;8.312;2022-09-09T05:56:28;98305.25;;;20.32;63.91
27144;BME280;14672;50.250;8.312;2022-09-09T05:58:55;98311.63;;;20.19;64.06
27144;BME280;14672;50.250;8.312;2022-09-09T06:01:23;98321.78;;;20.31;64.11
27144;BME280;14672;50.250;8.312;2022-09-09T06:03:51;98321.78;;;20.31;64.32
27144;BME280;14672;50.250;8.312;2022-09-09T06:06:21;98320.66;;;20.40;63.76
27144;BME280;14672;50.250;8.312;2022-09-09T06:08:50;98324.25;;;20.16;64.55
27144;BME280;14672;50.250;8.312;2022-09-09T06:11:28;98313.44;;;20.22;64.60
27144;BME280;14672;50.250;8.312;2022-09-09T06:13:57;98326.47;;;20.34;64.24
27144;BME280;14672;50.250;8.312;2022-09-09T06:16:26;98318.66;;;20.29;64.39
27144;BME280;14672;50.250;8.312;2022-09-09T06:18:54;98318.13;;;20.25;64.60
27144;BME280;14672;50.250;8.312;2022-09-09T06:21:26;98319.94;;;20.34;64.20
27144;BME280;14672;50.250;8.312;2022-09-09T06:23:53;98319.16;;;20.33;64.28
27144;BME280;14672;50.250;8.312;2022-09-09T06:26:22;98311.19;;;20.39;64.14
27144;BME280;14672;50.250;8.312;2022-09-09T06:28:51;98308.88;;;20.38;64.24
27144;BME280;14672;50.250;8.312;2022-09-09T06:31:21;98303.59;;;20.42;63.98
27144;BME280;14672;50.250;8.312;2022-09-09T06:33:49;98304.94;;;20.35;63.87
27144;BME280;14672;50.250;8.312;2022-09-09T06:36:22;98303.94;;;20.33;64.32
27144;BME280;14672;50.250;8.312;2022-09-09T06:38:48;98305.69;;;20.41;63.78
27144;BME280;14672;50.250;8.312;2022-09-09T06:41:17;98302.72;;;20.47;63.98
27144;BME280;14672;50.250;8.312;2022-09-09T06:43:47;98311.09;;;20.50;63.88
27144;BME280;14672;50.250;8.312;2022-09-09T06:46:15;98306.66;;;20.49;63.33
27144;BME280;14672;50.250;8.312;2022-09-09T06:48:43;98308.94;;;20.56;62.68
27144;BME280;14672;50.250;8.312;2022-09-09T06:51:22;98310.19;;;20.61;62.82
27144;BME280;14672;50.250;8.312;2022-09-09T06:53:51;98314.22;;;20.52;62.88
27144;BME280;14672;50.250;8.312;2022-09-09T06:58:56;98315.41;;;20.38;63.82
27144;BME280;14672;50.250;8.312;2022-09-09T07:01:32;98301.06;;;20.57;63.33
27144;BME280;14672;50.250;8.312;2022-09-09T07:03:59;98311.00;;;20.61;62.85
27144;BME280;14672;50.250;8.312;2022-09-09T07:06:48;98309.91;;;20.65;62.94
27144;BME280;14672;50.250;8.312;2022-09-09T07:09:15;98307.31;;;20.61;63.34
27144;BME280;14672;50.250;8.312;2022-09-09T07:11:44;98312.16;;;20.47;63.51
27144;BME280;14672;50.250;8.312;2022-09-09T07:14:11;98317.81;;;20.58;63.19
27144;BME280;14672;50.250;8.312;2022-09-09T07:16:40;98321.78;;;20.55;63.59
27144;BME280;14672;50.250;8.312;2022-09-09T07:19:07;98332.06;;;20.51;63.04
27144;BME280;14672;50.250;8.312;2022-09-09T07:21:34;98324.97;;;20.76;62.50
27144;BME280;14672;50.250;8.312;2022-09-09T07:24:00;98320.91;;;20.66;62.79
27144;BME280;14672;50.250;8.312;2022-09-09T07:26:29;98330.63;;;20.63;63.48
27144;BME280;14672;50.250;8.312;2022-09-09T07:28:56;98330.75;;;20.52;63.65
27144;BME280;14672;50.250;8.312;2022-09-09T07:31:32;98333.34;;;20.55;63.22
27144;BME280;14672;50.250;8.312;2022-09-09T07:33:59;98336.69;;;20.59;63.39
27144;BME280;14672;50.250;8.312;2022-09-09T07:36:33;98322.41;;;20.73;63.26
27144;BME280;14672;50.250;8.312;2022-09-09T07:39:04;98322.41;;;20.73;62.92
27144;BME280;14672;50.250;8.312;2022-09-09T07:44:14;98339.84;;;20.61;63.13
27144;BME280;14672;50.250;8.312;2022-09-09T07:46:41;98339.84;;;20.61;63.09
27144;BME280;14672;50.250;8.312;2022-09-09T07:49:08;98349.09;;;20.54;63.64
27144;BME280;14672;50.250;8.312;2022-09-09T07:51:43;98345.63;;;20.61;63.27
27144;BME280;14672;50.250;8.312;2022-09-09T07:54:13;98346.94;;;20.85;62.45
27144;BME280;14672;50.250;8.312;2022-09-09T07:56:40;98360.34;;;20.82;62.16
27144;BME280;14672;50.250;8.312;2022-09-09T07:59:07;98358.78;;;20.81;61.95
27144;BME280;14672;50.250;8.312;2022-09-09T08:01:48;98355.72;;;20.98;62.03
27144;BME280;14672;50.250;8.312;2022-09-09T08:04:17;98360.00;;;21.10;61.34
27144;BME280;14672;50.250;8.312;2022-09-09T08:06:50;98348.59;;;21.23;61.64
27144;BME280;14672;50.250;8.312;2022-09-09T08:09:17;98355.25;;;20.94;61.20
27144;BME280;14672;50.250;8.312;2022-09-09T08:11:44;98350.31;;;21.13;61.04
27144;BME280;14672;50.250;8.312;2022-09-09T08:14:11;98350.16;;;21.24;60.64
27144;BME280;14672;50.250;8.312;2022-09-09T08:16:42;98350.63;;;21.28;60.63
27144;BME280;14672;50.250;8.312;2022-09-09T08:19:08;98357.44;;;21.31;60.61
27144;BME280;14672;50.250;8.312;2022-09-09T08:21:37;98356.00;;;21.19;60.40
27144;BME280;14672;50.250;8.312;2022-09-09T08:24:05;98361.09;;;21.31;60.01
27144;BME280;14672;50.250;8.312;2022-09-09T08:26:43;98354.84;;;21.27;59.91
27144;BME280;14672;50.250;8.312;2022-09-09T08:29:12;98364.41;;;21.41;59.67
27144;BME280;14672;50.250;8.312;2022-09-09T08:31:52;98369.56;;;21.29;60.03
27144;BME280;14672;50.250;8.312;2022-09-09T08:34:20;98364.31;;;21.28;59.48
27144;BME280;14672;50.250;8.312;2022-09-09T08:36:48;98377.31;;;21.16;59.83
27144;BME280;14672;50.250;8.312;2022-09-09T08:39:18;98373.41;;;21.13;60.01
27144;BME280;14672;50.250;8.312;2022-09-09T08:52:51;98370.72;;;21.39;59.19
27144;BME280;14672;50.250;8.312;2022-09-09T08:58:18;98362.41;;;21.30;59.21
27144;BME280;14672;50.250;8.312;2022-09-09T09:03:49;98372.19;;;21.46;58.75
27144;BME280;14672;50.250;8.312;2022-09-09T09:09:38;98364.25;;;21.33;58.51
27144;BME280;14672;50.250;8.312;2022-09-09T09:12:28;98363.94;;;21.37;58.28
27144;BME280;14672;50.250;8.312;2022-09-09T09:14:55;98367.69;;;21.50;58.17
27144;BME280;14672;50.250;8.312;2022-09-09T09:17:26;98365.72;;;21.59;58.22
27144;BME280;14672;50.250;8.312;2022-09-09T09:19:53;98366.13;;;21.68;58.65
27144;BME280;14672;50.250;8.312;2022-09-09T09:25:23;98359.38;;;21.79;58.48
27144;BME280;14672;50.250;8.312;2022-09-09T09:28:18;98362.69;;;21.88;58.39
27144;BME280;14672;50.250;8.312;2022-09-09T09:33:52;98352.84;;;21.97;57.37
27144;BME280;14672;50.250;8.312;2022-09-09T09:36:21;98351.28;;;21.96;56.79
27144;BME280;14672;50.250;8.312;2022-09-09T09:38:56;98341.75;;;22.01;57.39
27144;BME280;14672;50.250;8.312;2022-09-09T09:41:31;98343.34;;;22.15;56.89
27144;BME280;14672;50.250;8.312;2022-09-09T09:43:58;98345.56;;;22.09;55.79
27144;BME280;14672;50.250;8.312;2022-09-09T09:46:26;98351.56;;;22.11;55.29
27144;BME280;14672;50.250;8.312;2022-09-09T09:49:04;98342.28;;;21.81;56.29
27144;BME280;14672;50.250;8.312;2022-09-09T09:51:32;98338.38;;;21.97;56.16
27144;BME280;14672;50.250;8.312;2022-09-09T09:54:22;98338.25;;;22.21;56.31
27144;BME280;14672;50.250;8.312;2022-09-09T09:56:53;98326.34;;;22.38;55.46
27144;BME280;14672;50.250;8.312;2022-09-09T09:59:37;98331.81;;;22.28;54.88
27144;BME280;14672;50.250;8.312;2022-09-09T10:02:20;98326.44;;;22.77;53.63
27144;BME280;14672;50.250;8.312;2022-09-09T10:05:39;98326.13;;;23.07;52.62
27144;BME280;14672;50.250;8.312;2022-09-09T10:08:15;98335.81;;;23.36;51.47
27144;BME280;14672;50.250;8.312;2022-09-09T10:14:21;98324.31;;;23.57;50.05
27144;BME280;14672;50.250;8.312;2022-09-09T10:35:10;98310.56;;;23.57;48.62
27144;BME280;14672;50.250;8.312;2022-09-09T10:40:42;98292.50;;;23.85;48.07
27144;BME280;14672;50.250;8.312;2022-09-09T10:53:07;98291.22;;;24.27;45.03
27144;BME280;14672;50.250;8.312;2022-09-09T10:56:01;98285.44;;;23.94;45.72
27144;BME280;14672;50.250;8.312;2022-09-09T10:58:42;98295.03;;;24.22;45.53
27144;BME280;14672;50.250;8.312;2022-09-09T11:01:22;98286.09;;;24.41;45.27
27144;BME280;14672;50.250;8.312;2022-09-09T11:03:59;98287.72;;;24.50;44.75
27144;BME280;14672;50.250;8.312;2022-09-09T11:06:41;98290.00;;;24.23;45.55
27144;BME280;14672;50.250;8.312;2022-09-09T11:09:19;98294.34;;;24.58;45.37
27144;BME280;14672;50.250;8.312;2022-09-09T11:11:57;98290.03;;;24.72;45.23
27144;BME280;14672;50.250;8.312;2022-09-09T11:14:45;98290.84;;;25.08;44.24
27144;BME280;14672;50.250;8.312;2022-09-09T11:17:25;98285.59;;;25.43;44.26
27144;BME280;14672;50.250;8.312;2022-09-09T11:19:52;98289.72;;;25.11;42.39
27144;BME280;14672;50.250;8.312;2022-09-09T11:22:33;98294.47;;;25.01;41.75
27144;BME280;14672;50.250;8.312;2022-09-09T11:31:21;98283.88;;;24.83;43.18
27144;BME280;14672;50.250;8.312;2022-09-09T11:34:38;98275.22;;;24.62;43.16
27144;BME280;14672;50.250;8.312;2022-09-09T11:42:34;98286.31;;;24.43;44.84
27144;BME280;14672;50.250;8.312;2022-09-09T11:45:25;98290.72;;;24.16;45.60
27144;BME280;14672;50.250;8.312;2022-09-09T11:47:59;98291.03;;;24.54;45.20
27144;BME280;14672;50.250;8.312;2022-09-09T11:55:33;98301.97;;;24.19;45.98
27144;BME280;14672;50.250;8.312;2022-09-09T11:58:06;98297.22;;;24.29;46.47
27144;BME280;14672;50.250;8.312;2022-09-09T12:00:45;98298.81;;;24.59;45.92
27144;BME280;14672;50.250;8.312;2022-09-09T12:10:29;98287.31;;;25.38;43.70
27144;BME280;14672;50.250;8.312;2022-09-09T12:12:37;98285.00;;;25.44;43.63
27144;BME280;14672;50.250;8.312;2022-09-09T12:17:46;98292.81;;;24.85;43.77
27144;BME280;14672;50.250;8.312;2022-09-09T12:23:09;98282.78;;;24.86;44.50
27144;BME280;14672;50.250;8.312;2022-09-09T12:25:47;98289.09;;;25.05;44.33
27144;BME280;14672;50.250;8.312;2022-09-09T12:37:40;98285.69;;;24.65;44.57
27144;BME280;14672;50.250;8.312;2022-09-09T12:40:32;98298.66;;;24.64;44.81
27144;BME280;14672;50.250;8.312;2022-09-09T12:43:02;98294.34;;;24.58;45.59
27144;BME280;14672;50.250;8.312;2022-09-09T12:45:33;98302.66;;;25.46;44.15
27144;BME280;14672;50.250;8.312;2022-09-09T12:48:08;98298.38;;;25.40;43.18
27144;BME280;14672;50.250;8.312;2022-09-09T12:50:47;98305.88;;;25.28;43.73
27144;BME280;14672;50.250;8.312;2022-09-09T12:53:35;98303.09;;;25.14;43.05
27144;BME280;14672;50.250;8.312;2022-09-09T12:56:09;98292.31;;;25.81;42.17
27144;BME280;14672;50.250;8.312;2022-09-09T12:58:48;98285.41;;;26.07;42.44
27144;BME280;14672;50.250;8.312;2022-09-09T13:01:27;98287.13;;;25.95;42.03
27144;BME280;14672;50.250;8.312;2022-09-09T13:03:54;98274.31;;;25.90;42.26
27144;BME280;14672;50.250;8.312;2022-09-09T13:06:29;98280.88;;;25.76;42.36
27144;BME280;14672;50.250;8.312;2022-09-09T13:08:58;98276.47;;;25.46;42.92
27144;BME280;14672;50.250;8.312;2022-09-09T13:11:36;98260.56;;;26.06;42.71
27144;BME280;14672;50.250;8.312;2022-09-09T13:14:04;98260.00;;;26.45;42.04
27144;BME280;14672;50.250;8.312;2022-09-09T13:16:35;98255.75;;;26.46;41.38
27144;BME280;14672;50.250;8.312;2022-09-09T13:19:16;98249.69;;;26.52;41.25
27144;BME280;14672;50.250;8.312;2022-09-09T13:21:42;98246.41;;;26.33;41.68
27144;BME280;14672;50.250;8.312;2022-09-09T13:24:32;98234.38;;;26.36;41.82
27144;BME280;14672;50.250;8.312;2022-09-09T13:27:33;98233.19;;;26.62;41.20
27144;BME280;14672;50.250;8.312;2022-09-09T13:30:00;98232.63;;;26.33;40.82
27144;BME280;14672;50.250;8.312;2022-09-09T13:32:27;98230.50;;;26.41;41.13
27144;BME280;14672;50.250;8.312;2022-09-09T13:34:59;98231.97;;;26.88;40.91
27144;BME280;14672;50.250;8.312;2022-09-09T13:37:39;98224.94;;;27.06;40.16
27144;BME280;14672;50.250;8.312;2022-09-09T13:40:17;98236.72;;;27.31;40.29
27144;BME280;14672;50.250;8.312;2022-09-09T13:42:45;98235.50;;;27.41;39.86
27144;BME280;14672;50.250;8.312;2022-09-09T13:45:23;98233.34;;;27.49;39.82
27144;BME280;14672;50.250;8.312;2022-09-09T13:47:50;98231.78;;;27.41;39.41
27144;BME280;14672;50.250;8.312;2022-09-09T13:50:23;98231.38;;;27.84;39.71
27144;BME280;14672;50.250;8.312;2022-09-09T13:52:54;98248.75;;;27.35;39.77
27144;BME280;14672;50.250;8.312;2022-09-09T13:55:23;98247.34;;;26.88;40.42
27144;BME280;14672;50.250;8.312;2022-09-09T14:00:24;98281.09;;;26.00;41.79
27144;BME280;14672;50.250;8.312;2022-09-09T14:02:50;98281.63;;;25.76;42.03
27144;BME280;14672;50.250;8.312;2022-09-09T14:05:18;98274.31;;;25.98;41.90
27144;BME280;14672;50.250;8.312;2022-09-09T14:07:45;98284.72;;;25.19;43.16
27144;BME280;14672;50.250;8.312;2022-09-09T14:10:12;98282.53;;;25.12;42.93
27144;BME280;14672;50.250;8.312;2022-09-09T14:12:38;98271.22;;;24.73;43.89
27144;BME280;14672;50.250;8.312;2022-09-09T14:15:06;98280.69;;;24.94;44.01
27144;BME280;14672;50.250;8.312;2022-09-09T14:17:33;98286.38;;;24.79;44.07
27144;BME280;14672;50.250;8.312;2022-09-09T14:19:59;98286.78;;;24.83;44.54
27144;BME280;14672;50.250;8.312;2022-09-09T14:22:25;98287.56;;;24.55;44.94
27144;BME280;14672;50.250;8.312;2022-09-09T14:24:51;98277.00;;;24.45;45.84
27144;BME280;14672;50.250;8.312;2022-09-09T14:27:17;98285.94;;;24.47;45.79
27144;BME280;14672;50.250;8.312;2022-09-09T14:29:44;98282.81;;;24.45;46.30
27144;BME280;14672;50.250;8.312;2022-09-09T14:32:11;98297.44;;;24.31;47.22
27144;BME280;14672;50.250;8.312;2022-09-09T14:34:37;98295.53;;;24.34;48.54
27144;BME280;14672;50.250;8.312;2022-09-09T14:37:03;98285.41;;;24.27;49.62
27144;BME280;14672;50.250;8.312;2022-09-09T14:39:30;98287.66;;;24.21;51.64
27144;BME280;14672;50.250;8.312;2022-09-09T14:41:56;98285.59;;;23.88;52.46
27144;BME280;14672;50.250;8.312;2022-09-09T14:44:21;98283.31;;;23.94;52.72
27144;BME280;14672;50.250;8.312;2022-09-09T14:46:47;98275.03;;;23.77;52.06
27144;BME280;14672;50.250;8.312;2022-09-09T14:49:16;98265.28;;;23.88;52.22
27144;BME280;14672;50.250;8.312;2022-09-09T14:51:41;98264.28;;;24.06;52.29
27144;BME280;14672;50.250;8.312;2022-09-09T14:54:08;98275.31;;;23.87;53.02
27144;BME280;14672;50.250;8.312;2022-09-09T14:56:34;98270.50;;;24.10;52.83
27144;BME280;14672;50.250;8.312;2022-09-09T14:59:00;98273.25;;;24.57;52.17
27144;BME280;14672;50.250;8.312;2022-09-09T15:01:27;98268.06;;;24.35;52.60
27144;BME280;14672;50.250;8.312;2022-09-09T15:04:00;98267.59;;;24.80;51.62
27144;BME280;14672;50.250;8.312;2022-09-09T15:06:32;98264.97;;;24.41;51.75
27144;BME280;14672;50.250;8.312;2022-09-09T15:09:04;98272.78;;;24.74;51.02
27144;BME280;14672;50.250;8.312;2022-09-09T15:11:34;98274.09;;;24.45;50.15
27144;BME280;14672;50.250;8.312;2022-09-09T15:14:04;98273.06;;;24.84;50.15
27144;BME280;14672;50.250;8.312;2022-09-09T15:16:31;98285.97;;;25.03;50.52
27144;BME280;14672;50.250;8.312;2022-09-09T15:18:59;98290.06;;;24.79;49.44
27144;BME280;14672;50.250;8.312;2022-09-09T15:21:33;98294.88;;;24.07;50.82
27144;BME280;14672;50.250;8.312;2022-09-09T15:23:59;98300.13;;;24.29;50.42
27144;BME280;14672;50.250;8.312;2022-09-09T15:26:26;98306.53;;;23.94;51.04
27144;BME280;14672;50.250;8.312;2022-09-09T15:28:52;98309.94;;;24.06;50.76
27144;BME280;14672;50.250;8.312;2022-09-09T15:31:22;98316.72;;;23.88;50.91
27144;BME280;14672;50.250;8.312;2022-09-09T15:34:00;98327.31;;;23.85;50.93
27144;BME280;14672;50.250;8.312;2022-09-09T15:36:47;98327.94;;;23.70;51.43
27144;BME280;14672;50.250;8.312;2022-09-09T15:39:16;98315.72;;;23.51;51.82
27144;BME280;14672;50.250;8.312;2022-09-09T15:41:47;98317.63;;;23.35;52.18
27144;BME280;14672;50.250;8.312;2022-09-09T15:44:14;98307.50;;;23.29;52.98
27144;BME280;14672;50.250;8.312;2022-09-09T15:46:45;98307.72;;;23.31;52.72
27144;BME280;14672;50.250;8.312;2022-09-09T15:49:17;98299.78;;;23.31;52.47
27144;BME280;14672;50.250;8.312;2022-09-09T15:51:47;98303.13;;;23.22;52.91
27144;BME280;14672;50.250;8.312;2022-09-09T15:54:18;98307.59;;;23.23;53.05
27144;BME280;14672;50.250;8.312;2022-09-09T15:56:56;98307.84;;;22.86;53.76
27144;BME280;14672;50.250;8.312;2022-09-09T15:59:23;98311.63;;;22.94;54.09
27144;BME280;14672;50.250;8.312;2022-09-09T16:01:49;98305.84;;;22.94;54.08
27144;BME280;14672;50.250;8.312;2022-09-09T16:04:18;98313.84;;;23.01;53.91
27144;BME280;14672;50.250;8.312;2022-09-09T16:07:09;98315.75;;;22.85;54.48
27144;BME280;14672;50.250;8.312;2022-09-09T16:09:36;98315.91;;;22.93;54.31